OIZJ  Jask  Airport

Jask, Iran

Add Bookmark
ICAO OIZJ
Type Airport
Status Operational
Latitude
25° 39' 12" N
25.653601
Longitude
57° 47' 57" E
57.799301
Local (DST + 5) UTC (GMT + 4)
Jul 1, 2015 05:14 Jul 1, 2015 12:44
Sunrise-Sunset Local UTC
Begin Civil Twilight 05:24 00:54
Sunrise 05:49 01:19
Sunset 07:35 15:05
End Civil Twilight 08:01 15:31
VFR
VFR
MVFR
MVFR
IFR
IFR
LIFR
LIFR
Unknown
Unavailable

Current Weather

METAR Observed MVFR
OIZJ 302100Z 23004KT 8000 NSC 31/27 Q1000 Tue, Jun 30, 2015 @ 21:00 UTC
(15 Hours, 44 Minutes ago)
Marginal Visual Flight Rules
Wind Visibility Conditions
230° at 4 knots (7 kph) 7,998 m
  • No significant weather
Temperatures Readings Precipitation
Current Temp
31°C
88°F
Dewpoint
27°C
81°F
Heat Index
41°C
106°
Humidity 79%
Altimeter 29.53" Hg
Sea Level Pressure 1,000 mb
Field Elevation
4 m
13 ft
None Recorded
-
-

CheckWX.com is intended as a tool to help pilots better visualize weather data. It is not intended as a substitute for an official weather briefing obtained from a Flight Service Station. CheckWX.com does not meet the FAA requirements for an official pre-flight weather briefing. Therefore, it's important that pilots still call and obtain an official FSS pre-flight weather briefing.

© 2007-2015 CheckWX.com
12:44:15 UTC